TimeEDT,TemperatureF,Dew PointF,Humidity,Sea Level PressureIn,VisibilityMPH,Wind Direction,Wind SpeedMPH,Gust SpeedMPH,PrecipitationIn,Events,Conditions,WindDirDegrees,DateUTC
12:15 AM,75.2,69.8,83,29.96,10.0,NW,3.5,-,N/A,Thunderstorm,Scattered Clouds,310,2013-09-08 04:15:00
12:35 AM,75.2,69.8,83,29.96,10.0,Calm,Calm,-,N/A,Thunderstorm,Clear,0,2013-09-08 04:35:00
12:55 AM,75.2,69.8,83,29.96,10.0,NNW,5.8,-,N/A,,Clear,330,2013-09-08 04:55:00
1:15 AM,75.2,69.8,83,29.95,10.0,NNW,4.6,-,N/A,Thunderstorm,Clear,340,2013-09-08 05:15:00
1:35 AM,75.2,68.0,78,29.95,10.0,Calm,Calm,-,N/A,,Clear,0,2013-09-08 05:35:00
1:55 AM,75.2,68.0,78,29.95,10.0,Calm,Calm,-,N/A,,Clear,0,2013-09-08 05:55:00
2:15 AM,75.2,68.0,78,29.94,10.0,NNW,3.5,-,N/A,,Clear,340,2013-09-08 06:15:00
2:35 AM,75.2,69.8,83,29.94,10.0,Calm,Calm,-,N/A,,Clear,0,2013-09-08 06:35:00
2:55 AM,75.2,69.8,83,29.93,10.0,NW,3.5,-,N/A,,Clear,320,2013-09-08 06:55:00
3:15 AM,75.2,69.8,83,29.93,10.0,NNW,3.5,-,N/A,,Clear,330,2013-09-08 07:15:00
3:35 AM,75.2,69.8,83,29.92,10.0,WNW,3.5,-,N/A,,Clear,290,2013-09-08 07:35:00
3:55 AM,75.2,69.8,83,29.92,10.0,NW,3.5,-,N/A,,Clear,310,2013-09-08 07:55:00
4:15 AM,75.2,69.8,83,29.92,10.0,NW,5.8,-,N/A,,Clear,320,2013-09-08 08:15:00
4:35 AM,75.2,69.8,83,29.92,10.0,NW,3.5,-,N/A,,Clear,310,2013-09-08 08:35:00
4:55 AM,73.4,69.8,88,29.92,10.0,NW,3.5,-,N/A,,Clear,320,2013-09-08 08:55:00
5:15 AM,73.4,69.8,88,29.92,10.0,NW,3.5,-,N/A,,Clear,310,2013-09-08 09:15:00
5:35 AM,73.4,69.8,88,29.92,10.0,NNW,3.5,-,N/A,,Clear,330,2013-09-08 09:35:00
5:55 AM,73.4,69.8,88,29.92,10.0,NNW,3.5,-,N/A,,Clear,340,2013-09-08 09:55:00
6:15 AM,73.4,69.8,88,29.92,10.0,NNW,4.6,-,N/A,,Clear,330,2013-09-08 10:15:00
6:47 AM,75.2,71.6,89,29.92,7.0,Calm,Calm,-,N/A,,Mostly Cloudy,0,2013-09-08 10:47:00
7:47 AM,75.2,71.6,89,29.93,7.0,Calm,Calm,-,N/A,,Scattered Clouds,0,2013-09-08 11:47:00
8:47 AM,80.6,71.6,74,29.96,7.0,Calm,Calm,-,N/A,,Partly Cloudy,0,2013-09-08 12:47:00
9:47 AM,82.4,71.6,70,29.96,7.0,Calm,Calm,-,N/A,,Scattered Clouds,0,2013-09-08 13:47:00
10:47 AM,84.2,69.8,62,29.96,7.0,Variable,5.8,-,N/A,,Mostly Cloudy,0,2013-09-08 14:47:00
11:47 AM,84.2,71.6,66,29.95,7.0,NNE,10.4,-,N/A,,Mostly Cloudy,30,2013-09-08 15:47:00
12:47 PM,86.0,71.6,62,29.94,7.0,NE,9.2,-,N/A,Thunderstorm,Thunderstorm,40,2013-09-08 16:47:00
1:47 PM,84.2,71.6,66,29.94,7.0,ENE,9.2,-,N/A,Thunderstorm,Thunderstorm,60,2013-09-08 17:47:00
2:47 PM,86.0,68.0,55,29.92,7.0,NNE,8.1,-,N/A,,Mostly Cloudy,20,2013-09-08 18:47:00
3:47 PM,84.2,69.8,62,29.91,7.0,NE,9.2,-,N/A,,Mostly Cloudy,50,2013-09-08 19:47:00
4:47 PM,84.2,71.6,66,29.89,7.0,ENE,6.9,-,N/A,,Mostly Cloudy,60,2013-09-08 20:47:00
5:47 PM,84.2,69.8,62,29.90,7.0,NE,6.9,-,N/A,,Scattered Clouds,50,2013-09-08 21:47:00
6:47 PM,84.2,69.8,62,29.90,7.0,NE,6.9,-,N/A,,Scattered Clouds,50,2013-09-08 22:47:00
8:15 PM,82.4,69.8,66,29.92,10.0,NE,6.9,-,N/A,,Clear,40,2013-09-09 00:15:00
8:35 PM,82.4,69.8,66,29.93,10.0,ENE,6.9,-,N/A,,Clear,60,2013-09-09 00:35:00
8:55 PM,80.6,69.8,70,29.94,10.0,NE,4.6,-,N/A,,Clear,50,2013-09-09 00:55:00
9:15 PM,80.6,69.8,70,29.95,10.0,ENE,5.8,-,N/A,,Scattered Clouds,60,2013-09-09 01:15:00
9:35 PM,82.4,71.6,70,29.96,10.0,NE,4.6,-,N/A,,Scattered Clouds,50,2013-09-09 01:35:00
9:55 PM,80.6,69.8,70,29.96,10.0,NE,4.6,-,N/A,,Scattered Clouds,40,2013-09-09 01:55:00
10:15 PM,80.6,69.8,70,29.97,10.0,NE,5.8,-,N/A,,Clear,50,2013-09-09 02:15:00
10:35 PM,80.6,69.8,70,29.97,10.0,ENE,5.8,-,N/A,,Clear,60,2013-09-09 02:35:00
10:55 PM,80.6,69.8,70,29.97,10.0,Calm,Calm,-,N/A,,Clear,0,2013-09-09 02:55:00
11:15 PM,80.6,69.8,70,29.98,10.0,ENE,4.6,-,N/A,,Clear,60,2013-09-09 03:15:00
11:35 PM,80.6,69.8,70,29.97,10.0,ENE,3.5,-,N/A,,Clear,70,2013-09-09 03:35:00
11:55 PM,80.6,71.6,74,29.97,10.0,ESE,4.6,-,N/A,,Clear,110,2013-09-09 03:55:00